createdAt,value
2023-05-14T00:01:13.016Z,3.60
2023-05-14T00:03:44.086Z,3.60
2023-05-14T00:06:16.108Z,3.40
2023-05-14T00:08:47.083Z,3.80
2023-05-14T00:11:17.867Z,3.90
2023-05-14T00:13:48.409Z,3.30
2023-05-14T00:16:19.308Z,4.10
2023-05-14T00:18:50.547Z,4.10
2023-05-14T00:21:21.611Z,3.70
2023-05-14T00:23:52.611Z,3.60
2023-05-14T00:26:23.577Z,3.70
2023-05-14T00:28:54.843Z,4.00
2023-05-14T00:31:25.512Z,3.80
2023-05-14T00:33:56.216Z,3.70
2023-05-14T00:36:26.689Z,4.20
2023-05-14T00:38:57.179Z,4.10
2023-05-14T00:41:27.702Z,4.00
2023-05-14T00:43:58.130Z,4.10
2023-05-14T00:46:29.638Z,4.00
2023-05-14T00:49:01.312Z,4.00
2023-05-14T00:51:32.534Z,3.60
2023-05-14T00:54:03.696Z,4.30
2023-05-14T00:56:35.239Z,4.40
2023-05-14T00:59:06.179Z,4.10
2023-05-14T01:01:36.777Z,4.10
2023-05-14T01:04:08.500Z,4.10
2023-05-14T01:06:45.511Z,4.30
2023-05-14T01:09:19.894Z,4.00
2023-05-14T01:11:59.767Z,4.10
2023-05-14T01:14:39.358Z,4.30
2023-05-14T01:17:13.591Z,4.10
2023-05-14T01:19:45.326Z,4.10
2023-05-14T01:22:16.609Z,4.20
2023-05-14T01:24:47.608Z,4.50
2023-05-14T01:27:24.395Z,4.30
2023-05-14T01:30:05.137Z,4.00
2023-05-14T01:32:37.155Z,4.50
2023-05-14T01:35:10.600Z,3.80
2023-05-14T01:37:42.991Z,4.10
2023-05-14T01:40:14.458Z,4.80
2023-05-14T01:42:45.711Z,4.30
2023-05-14T01:45:16.339Z,4.50
2023-05-14T01:47:46.929Z,4.50
2023-05-14T01:50:17.858Z,4.00
2023-05-14T01:52:49.133Z,4.40
2023-05-14T01:55:20.202Z,4.80
2023-05-14T01:57:51.061Z,4.40
2023-05-14T02:00:24.940Z,4.30
2023-05-14T02:02:56.029Z,4.70
2023-05-14T02:05:26.667Z,4.40
2023-05-14T02:07:57.909Z,4.30
2023-05-14T02:10:29.295Z,4.30
2023-05-14T02:13:00.254Z,4.50
2023-05-14T02:15:31.463Z,4.30
2023-05-14T02:18:02.050Z,4.70
2023-05-14T02:20:32.639Z,4.40
2023-05-14T02:23:03.566Z,4.40
2023-05-14T02:25:34.182Z,4.40
2023-05-14T02:28:05.097Z,4.10
2023-05-14T02:30:35.634Z,4.60
2023-05-14T02:33:06.439Z,4.80
2023-05-14T02:35:37.770Z,4.80
2023-05-14T02:38:08.297Z,4.10
2023-05-14T02:40:39.619Z,4.10
2023-05-14T02:43:10.890Z,3.80
2023-05-14T02:45:41.798Z,3.60
2023-05-14T02:48:12.514Z,3.20
2023-05-14T02:50:43.155Z,3.10
2023-05-14T02:53:14.485Z,3.70
2023-05-14T02:55:45.955Z,3.50
2023-05-14T02:58:17.099Z,3.40
2023-05-14T03:00:48.414Z,4.10
2023-05-14T03:03:19.819Z,3.90
2023-05-14T03:05:51.912Z,3.90
2023-05-14T03:08:22.468Z,3.70
2023-05-14T03:10:53.457Z,4.00
2023-05-14T03:13:24.309Z,4.30
2023-05-14T03:15:56.747Z,4.00
2023-05-14T03:18:30.551Z,4.60
2023-05-14T03:21:01.510Z,5.10
2023-05-14T03:23:34.954Z,4.50
2023-05-14T03:26:06.444Z,3.50
2023-05-14T03:28:37.093Z,3.90
2023-05-14T03:31:08.290Z,4.00
2023-05-14T03:33:39.362Z,4.70
2023-05-14T03:36:10.519Z,5.20
2023-05-14T03:38:41.136Z,4.60
2023-05-14T03:41:11.764Z,4.70
2023-05-14T03:43:42.400Z,3.90
2023-05-14T03:46:13.040Z,4.30
2023-05-14T03:48:44.678Z,4.30
2023-05-14T03:51:15.556Z,4.30
2023-05-14T03:53:46.260Z,4.20
2023-05-14T03:56:17.112Z,4.30
2023-05-14T03:58:48.042Z,4.60
2023-05-14T04:01:19.121Z,4.20
2023-05-14T04:03:50.041Z,4.20
2023-05-14T04:06:21.123Z,3.60
2023-05-14T04:08:52.127Z,3.50
2023-05-14T04:11:22.851Z,4.00
2023-05-14T04:13:53.433Z,4.20
2023-05-14T04:16:24.089Z,4.20
2023-05-14T04:18:54.773Z,3.80
2023-05-14T04:21:25.731Z,4.30
2023-05-14T04:23:56.481Z,4.00
2023-05-14T04:26:27.220Z,4.30
2023-05-14T04:28:58.408Z,4.10
2023-05-14T04:31:29.052Z,4.10
2023-05-14T04:33:59.700Z,4.00
2023-05-14T04:36:30.161Z,3.90
2023-05-14T04:39:00.662Z,4.50
2023-05-14T04:41:31.760Z,4.00
2023-05-14T04:44:04.457Z,4.80
2023-05-14T04:46:35.213Z,4.70
2023-05-14T04:49:06.129Z,5.10
2023-05-14T04:51:36.780Z,4.90
2023-05-14T04:54:07.380Z,4.80
2023-05-14T04:56:38.066Z,5.10
2023-05-14T04:59:09.161Z,5.00
2023-05-14T05:01:39.781Z,4.70
2023-05-14T05:04:10.610Z,4.80
2023-05-14T05:06:41.884Z,4.90
2023-05-14T05:09:12.531Z,5.00
2023-05-14T05:11:43.073Z,4.90
2023-05-14T05:14:14.119Z,4.90
2023-05-14T05:16:44.995Z,4.90
2023-05-14T05:19:16.058Z,4.70
2023-05-14T05:21:46.700Z,5.30
2023-05-14T05:24:17.599Z,5.20
2023-05-14T05:26:48.392Z,5.60
2023-05-14T05:29:18.982Z,5.50
2023-05-14T05:31:50.285Z,5.70
2023-05-14T05:34:20.910Z,5.70
2023-05-14T05:36:51.663Z,5.30
2023-05-14T05:39:22.497Z,5.20
2023-05-14T05:41:53.222Z,5.30
2023-05-14T05:44:23.801Z,5.20
2023-05-14T05:46:56.226Z,5.30
2023-05-14T05:49:27.539Z,5.30
2023-05-14T05:51:58.422Z,5.70
2023-05-14T05:54:29.554Z,5.70
2023-05-14T05:57:00.110Z,5.50
2023-05-14T05:59:31.159Z,5.20
2023-05-14T06:02:01.782Z,5.00
2023-05-14T06:04:32.489Z,6.30
2023-05-14T06:07:02.941Z,5.50
2023-05-14T06:09:33.657Z,6.40
2023-05-14T06:12:04.529Z,5.80
2023-05-14T06:14:35.108Z,5.30
2023-05-14T06:17:06.081Z,5.00
2023-05-14T06:19:36.939Z,4.90
2023-05-14T06:22:07.972Z,5.10
2023-05-14T06:24:38.914Z,5.10
2023-05-14T06:27:10.619Z,4.90
2023-05-14T06:29:41.143Z,5.20
2023-05-14T06:32:15.380Z,5.40
2023-05-14T06:34:46.463Z,8.50
2023-05-14T06:37:17.425Z,5.70
2023-05-14T06:39:50.225Z,4.40
2023-05-14T06:42:20.863Z,4.90
2023-05-14T06:44:51.651Z,5.40
2023-05-14T06:47:22.657Z,4.50
2023-05-14T06:49:53.304Z,4.70
2023-05-14T06:52:23.701Z,4.60
2023-05-14T06:54:54.508Z,4.80
2023-05-14T06:57:24.949Z,4.30
2023-05-14T06:59:55.556Z,4.50
2023-05-14T07:02:26.193Z,4.60
2023-05-14T07:04:56.832Z,5.00
2023-05-14T07:07:27.808Z,5.10
2023-05-14T07:09:58.325Z,4.80
2023-05-14T07:12:28.868Z,4.30
2023-05-14T07:14:59.386Z,4.40
2023-05-14T07:17:31.350Z,5.10
2023-05-14T07:20:01.981Z,4.80
2023-05-14T07:22:32.513Z,4.70
2023-05-14T07:25:03.307Z,4.30
2023-05-14T07:27:33.936Z,4.30
2023-05-14T07:30:05.397Z,4.70
2023-05-14T07:32:35.896Z,4.50
2023-05-14T07:35:08.076Z,4.50
2023-05-14T07:37:38.668Z,4.20
2023-05-14T07:40:11.181Z,5.30
2023-05-14T07:42:41.866Z,4.10
2023-05-14T07:45:13.510Z,4.30
2023-05-14T07:47:44.329Z,4.20
2023-05-14T07:50:17.376Z,4.30
2023-05-14T07:52:47.903Z,4.50
2023-05-14T07:55:18.728Z,4.30
2023-05-14T07:57:49.404Z,6.80
2023-05-14T08:00:21.344Z,4.70
2023-05-14T08:02:52.064Z,4.40
2023-05-14T08:05:22.816Z,3.90
2023-05-14T08:07:53.741Z,4.30
2023-05-14T08:10:24.900Z,4.00
2023-05-14T08:12:56.079Z,4.10
2023-05-14T08:15:27.986Z,4.00
2023-05-14T08:18:03.581Z,3.80
2023-05-14T08:20:34.872Z,4.20
2023-05-14T08:23:07.340Z,4.30
2023-05-14T08:25:39.913Z,4.40
2023-05-14T08:28:11.465Z,3.90
2023-05-14T08:30:42.055Z,4.30
2023-05-14T08:33:12.931Z,3.70
2023-05-14T08:35:43.436Z,3.80
2023-05-14T08:38:14.022Z,3.90
2023-05-14T08:40:50.591Z,3.60
2023-05-14T08:43:27.097Z,3.70
2023-05-14T08:46:02.071Z,4.00
2023-05-14T08:48:36.126Z,4.00
2023-05-14T08:51:07.824Z,3.60
2023-05-14T08:53:40.456Z,3.40
2023-05-14T08:56:12.810Z,3.70
2023-05-14T08:58:43.309Z,3.40
2023-05-14T09:01:15.546Z,3.90
2023-05-14T09:03:46.882Z,3.80
2023-05-14T09:06:18.097Z,3.50
2023-05-14T09:08:49.127Z,3.20
2023-05-14T09:11:20.084Z,3.20
2023-05-14T09:13:51.023Z,3.30
2023-05-14T09:16:23.141Z,3.40
2023-05-14T09:18:53.950Z,3.30
2023-05-14T09:21:24.636Z,3.70
2023-05-14T09:23:59.882Z,2.90
2023-05-14T09:26:35.009Z,2.60
2023-05-14T09:29:06.135Z,3.00
2023-05-14T09:31:37.426Z,2.90
2023-05-14T09:34:08.400Z,2.90
2023-05-14T09:36:39.323Z,2.90
2023-05-14T09:39:10.556Z,3.20
2023-05-14T09:41:40.973Z,2.90
2023-05-14T09:44:11.528Z,3.70
2023-05-14T09:46:42.579Z,3.10
2023-05-14T09:49:13.346Z,3.40
2023-05-14T09:51:44.563Z,3.30
2023-05-14T09:54:15.189Z,3.40
2023-05-14T09:56:46.375Z,3.40
2023-05-14T09:59:16.956Z,3.30
2023-05-14T10:01:48.637Z,3.80
2023-05-14T10:04:20.620Z,3.40
2023-05-14T10:06:54.187Z,4.60
2023-05-14T10:09:28.299Z,4.00
2023-05-14T10:12:02.079Z,3.80
2023-05-14T10:14:39.340Z,3.70
2023-05-14T10:17:18.062Z,4.00
2023-05-14T10:19:54.213Z,3.60
2023-05-14T10:22:28.384Z,4.40
2023-05-14T10:24:59.184Z,3.60
2023-05-14T10:27:30.438Z,3.60
2023-05-14T10:30:01.807Z,3.90
2023-05-14T10:32:37.810Z,4.10
2023-05-14T10:35:20.416Z,4.50
2023-05-14T10:37:53.711Z,4.60
2023-05-14T10:40:27.051Z,4.00
2023-05-14T10:43:02.330Z,3.90
2023-05-14T10:45:34.334Z,4.00
2023-05-14T10:48:05.850Z,4.10
2023-05-14T10:50:37.016Z,3.50
2023-05-14T10:53:11.623Z,3.80
2023-05-14T10:55:43.352Z,4.20
2023-05-14T10:58:14.770Z,4.00
2023-05-14T11:00:48.534Z,3.90
2023-05-14T11:03:22.189Z,3.70
2023-05-14T11:05:53.333Z,3.60
2023-05-14T11:08:29.410Z,3.70
2023-05-14T11:11:00.778Z,3.40
2023-05-14T11:13:32.258Z,3.50
2023-05-14T11:16:15.194Z,3.50
2023-05-14T11:19:02.867Z,3.70
2023-05-14T11:21:34.098Z,3.20
2023-05-14T11:24:05.603Z,3.80
2023-05-14T11:26:36.713Z,3.60
2023-05-14T11:29:07.487Z,2.70
2023-05-14T11:31:38.297Z,2.90
2023-05-14T11:34:10.516Z,2.90
2023-05-14T11:36:42.332Z,3.20
2023-05-14T11:39:20.499Z,2.80
2023-05-14T11:41:51.451Z,3.20
2023-05-14T11:44:22.163Z,3.10
2023-05-14T11:46:59.594Z,3.30
2023-05-14T11:52:03.605Z,3.70
2023-05-14T11:54:35.171Z,3.30
2023-05-14T11:57:12.623Z,4.20
2023-05-14T12:02:14.133Z,3.50
2023-05-14T12:04:45.940Z,3.40
2023-05-14T12:07:17.939Z,3.80
2023-05-14T12:09:50.777Z,4.20
2023-05-14T12:12:23.301Z,3.90
2023-05-14T12:14:54.347Z,3.80
2023-05-14T12:17:26.110Z,4.30
2023-05-14T12:19:58.502Z,4.30
2023-05-14T12:22:30.786Z,4.30
2023-05-14T12:25:02.543Z,4.20
2023-05-14T12:27:33.095Z,4.10
2023-05-14T12:30:20.116Z,4.40
2023-05-14T12:32:53.657Z,4.10
2023-05-14T12:35:24.986Z,3.60
2023-05-14T12:37:55.766Z,3.80
2023-05-14T12:40:26.812Z,3.80
2023-05-14T12:42:57.670Z,3.60
2023-05-14T12:45:28.638Z,3.40
2023-05-14T12:47:59.485Z,3.70
2023-05-14T12:50:30.538Z,3.60
2023-05-14T12:53:01.154Z,3.60
2023-05-14T12:55:31.597Z,3.20
2023-05-14T12:58:02.615Z,3.60
2023-05-14T13:00:33.722Z,3.80
2023-05-14T13:03:04.630Z,3.90
2023-05-14T13:05:36.299Z,3.90
2023-05-14T13:08:06.928Z,3.70
2023-05-14T13:10:37.925Z,3.70
2023-05-14T13:13:08.423Z,3.80
2023-05-14T13:15:39.924Z,3.80
2023-05-14T13:18:10.829Z,3.70
2023-05-14T13:20:43.243Z,3.70
2023-05-14T13:23:13.944Z,3.80
2023-05-14T13:25:44.567Z,3.40
2023-05-14T13:28:15.290Z,3.50
2023-05-14T13:31:06.959Z,3.20
2023-05-14T13:33:42.215Z,3.70
2023-05-14T13:36:14.216Z,3.40
2023-05-14T13:38:45.863Z,3.70
2023-05-14T13:41:16.741Z,3.60
2023-05-14T13:43:47.186Z,3.60
2023-05-14T13:46:18.066Z,3.60
2023-05-14T13:48:48.713Z,3.90
2023-05-14T13:51:19.525Z,3.80
2023-05-14T13:53:50.087Z,3.90
2023-05-14T13:56:21.428Z,3.40
2023-05-14T13:58:51.907Z,4.00
2023-05-14T14:01:26.653Z,3.20
2023-05-14T14:03:57.195Z,3.70
2023-05-14T14:06:28.404Z,3.90
2023-05-14T14:08:58.996Z,3.50
2023-05-14T14:11:29.769Z,3.50
2023-05-14T14:14:00.472Z,3.30
2023-05-14T14:16:31.138Z,3.50
2023-05-14T14:19:02.183Z,3.90
2023-05-14T14:21:32.992Z,3.50
2023-05-14T14:24:03.479Z,3.50
2023-05-14T14:26:34.401Z,3.50
2023-05-14T14:29:05.261Z,3.30
2023-05-14T14:31:37.676Z,3.50
2023-05-14T14:34:08.322Z,3.50
2023-05-14T14:36:38.945Z,3.60
2023-05-14T14:39:09.541Z,3.60
2023-05-14T14:41:40.574Z,3.40
2023-05-14T14:44:11.567Z,3.30
2023-05-14T14:46:43.415Z,3.30
2023-05-14T14:49:14.025Z,3.40
2023-05-14T14:51:46.921Z,3.60
2023-05-14T14:54:17.913Z,3.60
2023-05-14T14:56:49.283Z,3.50
2023-05-14T14:59:20.322Z,3.30
2023-05-14T15:01:51.121Z,3.50
2023-05-14T15:04:21.816Z,3.50
2023-05-14T15:06:52.625Z,3.50
2023-05-14T15:09:23.184Z,3.50
2023-05-14T15:11:54.158Z,3.30
2023-05-14T15:14:24.694Z,3.70
2023-05-14T15:16:55.728Z,3.10
2023-05-14T15:19:26.288Z,3.90
2023-05-14T15:21:57.126Z,3.60
2023-05-14T15:24:27.682Z,3.10
2023-05-14T15:26:58.898Z,3.50
2023-05-14T15:29:29.712Z,3.40
2023-05-14T15:32:00.405Z,3.50
2023-05-14T15:34:31.234Z,3.60
2023-05-14T15:37:01.737Z,3.60
2023-05-14T15:39:32.555Z,3.70
2023-05-14T15:42:03.167Z,3.70
2023-05-14T15:44:34.423Z,3.90
2023-05-14T15:47:07.328Z,3.20
2023-05-14T15:49:38.196Z,3.30
2023-05-14T15:52:09.282Z,3.80
2023-05-14T15:54:40.138Z,5.40
2023-05-14T15:57:11.181Z,3.80
2023-05-14T15:59:42.272Z,3.10
2023-05-14T16:02:13.712Z,3.60
2023-05-14T16:04:45.119Z,3.20
2023-05-14T16:07:16.347Z,3.50
2023-05-14T16:09:47.155Z,4.20
2023-05-14T16:12:17.703Z,3.00
2023-05-14T16:14:48.298Z,3.80
2023-05-14T16:17:19.168Z,3.70
2023-05-14T16:19:49.938Z,3.30
2023-05-14T16:22:20.531Z,4.50
2023-05-14T16:24:51.214Z,3.70
2023-05-14T16:27:23.965Z,3.50
2023-05-14T16:29:57.006Z,3.10
2023-05-14T16:32:30.707Z,3.40
2023-05-14T16:35:02.821Z,3.60
2023-05-14T16:37:33.818Z,4.10
2023-05-14T16:40:05.460Z,2.90
2023-05-14T16:42:36.261Z,3.10
2023-05-14T16:45:08.096Z,3.30
2023-05-14T16:47:38.673Z,3.30
2023-05-14T16:50:11.204Z,3.20
2023-05-14T16:52:42.172Z,3.70
2023-05-14T16:55:13.192Z,3.50
2023-05-14T16:57:44.774Z,3.60
2023-05-14T17:00:17.876Z,3.70
2023-05-14T17:02:51.012Z,3.70
2023-05-14T17:05:22.016Z,4.20
2023-05-14T17:07:52.728Z,3.90
2023-05-14T17:10:26.227Z,3.50
2023-05-14T17:12:56.931Z,3.90
2023-05-14T17:15:28.043Z,3.60
2023-05-14T17:17:58.916Z,3.70
2023-05-14T17:20:30.702Z,3.90
2023-05-14T17:23:01.608Z,3.90
2023-05-14T17:25:33.481Z,3.80
2023-05-14T17:28:04.406Z,4.00
2023-05-14T17:30:35.439Z,3.80
2023-05-14T17:33:06.664Z,4.10
2023-05-14T17:35:40.510Z,4.00
2023-05-14T17:38:11.249Z,3.60
2023-05-14T17:40:42.858Z,3.70
2023-05-14T17:43:13.437Z,3.70
2023-05-14T17:45:54.071Z,3.40
2023-05-14T17:48:27.823Z,3.70
2023-05-14T17:50:58.564Z,3.60
2023-05-14T17:53:29.207Z,3.80
2023-05-14T17:56:02.682Z,3.60
2023-05-14T17:58:33.400Z,3.60
2023-05-14T18:01:04.641Z,3.70
2023-05-14T18:03:35.554Z,3.70
2023-05-14T18:06:06.581Z,3.40
2023-05-14T18:08:37.988Z,3.20
2023-05-14T18:11:11.189Z,3.50
2023-05-14T18:13:41.869Z,4.10
2023-05-14T18:16:12.425Z,3.70
2023-05-14T18:18:43.421Z,3.70
2023-05-14T18:21:14.094Z,3.40
2023-05-14T18:23:45.081Z,3.90
2023-05-14T18:26:16.155Z,3.70
2023-05-14T18:28:49.388Z,3.60
2023-05-14T18:31:20.404Z,3.40
2023-05-14T18:33:51.488Z,3.90
2023-05-14T18:36:22.161Z,3.20
2023-05-14T18:38:52.677Z,3.60
2023-05-14T18:41:23.532Z,3.50
2023-05-14T18:43:54.115Z,3.50
2023-05-14T18:46:25.752Z,3.50
2023-05-14T18:48:56.602Z,3.30
2023-05-14T18:51:29.784Z,3.70
2023-05-14T18:54:00.432Z,5.90
2023-05-14T18:56:30.999Z,6.50
2023-05-14T18:59:01.970Z,3.90
2023-05-14T19:01:32.634Z,3.50
2023-05-14T19:04:05.145Z,3.40
2023-05-14T19:06:36.213Z,3.50
2023-05-14T19:09:06.976Z,3.10
2023-05-14T19:11:37.869Z,3.60
2023-05-14T19:14:09.395Z,3.70
2023-05-14T19:16:40.904Z,3.50
2023-05-14T19:19:11.875Z,3.50
2023-05-14T19:21:42.481Z,3.40
2023-05-14T19:24:13.040Z,3.60
2023-05-14T19:26:43.650Z,3.60
2023-05-14T19:29:16.462Z,3.60
2023-05-14T19:31:47.124Z,3.50
2023-05-14T19:34:18.037Z,3.30
2023-05-14T19:36:49.119Z,3.60
2023-05-14T19:39:19.974Z,3.70
2023-05-14T19:41:50.532Z,3.60
2023-05-14T19:44:21.844Z,3.40
2023-05-14T19:46:53.124Z,3.80
2023-05-14T19:49:23.715Z,4.00
2023-05-14T19:51:55.103Z,3.60
2023-05-14T19:54:25.691Z,3.30
2023-05-14T19:56:56.531Z,4.10
2023-05-14T19:59:29.525Z,4.00
2023-05-14T20:02:00.086Z,3.70
2023-05-14T20:04:31.434Z,3.40
2023-05-14T20:07:02.033Z,3.60
2023-05-14T20:09:32.607Z,3.70
2023-05-14T20:12:03.119Z,4.60
2023-05-14T20:14:33.763Z,7.80
2023-05-14T20:17:04.556Z,4.80
2023-05-14T20:20:55.925Z,4.50
2023-05-14T20:23:26.822Z,4.20
2023-05-14T20:25:57.414Z,4.00
2023-05-14T20:28:28.354Z,4.20
2023-05-14T20:31:00.338Z,4.10
2023-05-14T20:33:31.193Z,4.30
2023-05-14T20:36:04.281Z,4.40
2023-05-14T20:38:35.657Z,4.20
2023-05-14T20:41:06.433Z,4.60
2023-05-14T20:43:37.030Z,4.20
2023-05-14T20:46:07.682Z,4.40
2023-05-14T20:48:38.248Z,4.50
2023-05-14T20:51:08.915Z,4.50
2023-05-14T20:53:40.228Z,4.60
2023-05-14T20:56:10.940Z,4.50
2023-05-14T20:58:41.513Z,4.90
2023-05-14T21:01:12.836Z,4.80
2023-05-14T21:03:43.646Z,4.70
2023-05-14T21:06:16.951Z,4.00
2023-05-14T21:08:47.842Z,4.60
2023-05-14T21:11:18.400Z,4.70
2023-05-14T21:13:49.323Z,4.60
2023-05-14T21:16:20.310Z,5.00
2023-05-14T21:18:51.543Z,4.90
2023-05-14T21:21:22.166Z,4.90
2023-05-14T21:23:53.112Z,6.20
2023-05-14T21:26:24.496Z,5.00
2023-05-14T21:28:55.470Z,4.40
2023-05-14T21:31:26.437Z,4.70
2023-05-14T21:33:57.057Z,4.40
2023-05-14T21:36:27.653Z,4.50
2023-05-14T21:39:00.581Z,4.50
2023-05-14T21:41:31.481Z,4.50
2023-05-14T21:44:02.034Z,4.70
2023-05-14T21:46:32.933Z,4.70
2023-05-14T21:49:03.543Z,4.80
2023-05-14T21:51:34.728Z,4.60
2023-05-14T21:54:05.853Z,4.80
2023-05-14T21:56:37.816Z,5.00
2023-05-14T21:59:08.662Z,5.10
2023-05-14T22:01:55.548Z,4.70
2023-05-14T22:04:31.135Z,5.00
2023-05-14T22:07:01.774Z,4.80
2023-05-14T22:09:33.008Z,4.80
2023-05-14T22:12:03.580Z,4.90
2023-05-14T22:14:34.095Z,4.50
2023-05-14T22:17:05.131Z,5.40
2023-05-14T22:19:35.888Z,4.80
2023-05-14T22:22:06.945Z,5.10
2023-05-14T22:24:37.803Z,5.50
2023-05-14T22:27:08.546Z,5.40
2023-05-14T22:29:39.404Z,5.10
2023-05-14T22:32:10.329Z,5.10
2023-05-14T22:34:41.532Z,5.30
2023-05-14T22:37:12.912Z,4.70
2023-05-14T22:39:43.572Z,5.40
2023-05-14T22:42:14.074Z,5.00
2023-05-14T22:44:45.067Z,5.00
2023-05-14T22:47:15.999Z,5.40
2023-05-14T22:49:46.517Z,5.60
2023-05-14T22:52:18.872Z,5.10
2023-05-14T22:54:50.891Z,5.10
2023-05-14T22:57:21.861Z,5.30
2023-05-14T22:59:52.374Z,5.40
2023-05-14T23:02:23.380Z,5.00
2023-05-14T23:04:53.990Z,5.40
2023-05-14T23:07:26.691Z,5.80
2023-05-14T23:09:57.769Z,6.10
2023-05-14T23:12:28.637Z,5.50
2023-05-14T23:14:59.854Z,5.40
2023-05-14T23:17:31.001Z,5.80
2023-05-14T23:20:01.656Z,5.70
2023-05-14T23:22:32.609Z,5.80
2023-05-14T23:25:04.037Z,5.60
2023-05-14T23:27:34.887Z,5.70
2023-05-14T23:30:08.645Z,5.90
2023-05-14T23:32:39.284Z,5.90
2023-05-14T23:35:10.583Z,5.70
2023-05-14T23:37:46.981Z,5.10
2023-05-14T23:40:17.995Z,5.30
2023-05-14T23:42:48.528Z,5.50
2023-05-14T23:45:19.349Z,5.50
2023-05-14T23:47:52.743Z,5.60
2023-05-14T23:50:25.011Z,6.10
2023-05-14T23:52:56.347Z,6.20
2023-05-14T23:55:29.259Z,5.70
2023-05-14T23:57:59.861Z,5.70
